Time;durP1;ratioP1;P1;durP2;ratioP2;P2;SDS_P1;SDS_P2;PMS_P1;PMS_P2;Temp;Humidity;BMP_temperature;BMP_pressure;BME280_temperature;BME280_humidity;BME280_pressure;Samples;Min_cycle;Max_cycle;Signal;HPM_P1;HPM_P2
2022/06/18 00:01:35;;;;;;;;;11.00;10.00;;;;;43.88;17.85;101463.72;5097396;27;45361;-75
2022/06/18 00:04:01;;;;;;;;;9.67;8.67;;;;;43.83;16.83;101457.78;5097648;27;45618;-75
2022/06/18 00:06:29;;;;;;;;;12.00;11.00;;;;;43.68;17.12;101450.06;5097396;27;45339;-75
2022/06/18 00:08:54;;;;;;;;;11.00;10.33;;;;;43.69;17.26;101451.81;5096991;27;45651;-75
2022/06/18 00:14:03;;;;;;;;;9.33;9.33;;;;;43.69;16.93;101440.63;5097391;27;45383;-75
2022/06/18 00:16:31;;;;;;;;;9.33;9.33;;;;;43.69;16.78;101443.44;5097061;27;45625;-75
2022/06/18 00:18:57;;;;;;;;;9.00;8.67;;;;;43.74;16.53;101454.06;5097122;27;46234;-75
2022/06/18 00:21:25;;;;;;;;;8.33;8.33;;;;;43.77;16.72;101445.38;5097267;27;45322;-75
2022/06/18 00:23:50;;;;;;;;;10.67;10.67;;;;;43.72;16.25;101444.16;5096883;27;45365;-75
2022/06/18 00:26:15;;;;;;;;;8.00;8.00;;;;;43.68;16.75;101454.78;5096958;27;49946;-75
2022/06/18 00:28:41;;;;;;;;;11.33;10.00;;;;;43.65;17.15;101436.44;5096884;27;45574;-75
2022/06/18 00:31:06;;;;;;;;;9.00;9.00;;;;;43.66;16.50;101449.38;5096954;27;45443;-75
2022/06/18 00:33:35;;;;;;;;;10.00;10.00;;;;;43.47;16.73;101421.75;5097045;27;45449;-75
2022/06/18 00:36:02;;;;;;;;;9.00;9.00;;;;;43.36;16.58;101414.53;5097178;27;45456;-74
2022/06/18 00:38:43;;;;;;;;;10.67;10.67;;;;;43.47;16.96;101438.50;5096402;27;45706;-75
2022/06/18 00:41:14;;;;;;;;;9.00;9.00;;;;;43.55;16.37;101432.94;5096794;27;45469;-74
2022/06/18 00:43:49;;;;;;;;;6.67;6.67;;;;;43.46;16.61;101426.47;5095386;27;45671;-74
2022/06/18 00:46:40;;;;;;;;;9.00;9.00;;;;;43.46;16.71;101446.03;5097060;27;45488;-75
2022/06/18 00:49:21;;;;;;;;;6.67;6.67;;;;;43.40;16.94;101448.59;5096621;27;46296;-74
2022/06/18 00:52:00;;;;;;;;;7.33;7.33;;;;;43.45;16.92;101449.84;5094847;27;45455;-75
2022/06/18 00:54:33;;;;;;;;;9.67;9.67;;;;;43.45;16.52;101451.75;5096806;27;45400;-74
2022/06/18 00:57:10;;;;;;;;;10.00;8.33;;;;;43.47;16.75;101455.28;5096690;27;45470;-75
2022/06/18 00:59:43;;;;;;;;;8.00;8.00;;;;;43.53;17.35;101460.16;5096204;27;46603;-75
2022/06/18 01:02:18;;;;;;;;;9.67;9.67;;;;;43.54;17.44;101453.53;5096718;27;45399;-75
2022/06/18 01:04:44;;;;;;;;;11.67;9.67;;;;;43.40;16.38;101443.88;5096804;27;45368;-75
2022/06/18 01:07:26;;;;;;;;;10.00;10.00;;;;;43.37;17.12;101435.84;5095109;27;45390;-74
2022/06/18 01:09:53;;;;;;;;;9.33;9.33;;;;;43.37;17.48;101444.22;5096287;27;45619;-74
2022/06/18 01:12:19;;;;;;;;;10.00;10.00;;;;;43.33;16.77;101446.47;5096394;27;45322;-75
2022/06/18 01:14:50;;;;;;;;;9.33;9.33;;;;;43.14;17.51;101413.28;5096271;27;45569;-74
2022/06/18 01:17:16;;;;;;;;;9.00;8.67;;;;;43.38;17.08;101442.28;5096351;27;45489;-75
2022/06/18 01:19:46;;;;;;;;;8.33;8.33;;;;;43.37;17.03;101449.78;5095429;27;45556;-75
2022/06/18 01:22:34;;;;;;;;;10.67;10.00;;;;;43.38;17.56;101450.66;5096072;27;45325;-74
2022/06/18 01:25:00;;;;;;;;;9.33;9.33;;;;;43.36;17.22;101442.44;5096213;27;45192;-75
2022/06/18 01:27:26;;;;;;;;;9.00;9.00;;;;;43.37;17.76;101438.63;5096489;27;45325;-75
2022/06/18 01:29:53;;;;;;;;;10.00;10.00;;;;;43.23;17.79;101425.31;5095969;27;45305;-75
2022/06/18 01:32:19;;;;;;;;;8.33;8.33;;;;;43.32;17.10;101450.31;5095961;27;45324;-75
2022/06/18 01:34:46;;;;;;;;;12.00;12.00;;;;;43.24;17.82;101435.44;5095699;27;45569;-74
2022/06/18 01:37:12;;;;;;;;;13.00;13.00;;;;;43.20;18.03;101434.91;5096166;27;45523;-75
2022/06/18 01:39:42;;;;;;;;;13.00;12.00;;;;;43.13;17.76;101425.47;5095522;27;46370;-75
2022/06/18 01:42:20;;;;;;;;;12.00;9.33;;;;;43.21;17.44;101436.66;5098729;27;45359;-74
2022/06/18 01:44:57;;;;;;;;;13.33;11.00;;;;;43.16;17.76;101433.50;5101409;27;45557;-75
2022/06/18 01:47:39;;;;;;;;;7.00;7.00;;;;;43.18;17.92;101442.56;5101780;27;45445;-74
2022/06/18 01:50:21;;;;;;;;;9.00;9.00;;;;;43.19;18.69;101430.38;5102577;27;45428;-74
2022/06/18 01:52:51;;;;;;;;;10.00;10.00;;;;;43.18;18.35;101432.28;5102597;27;45442;-75
2022/06/18 01:55:26;;;;;;;;;11.33;11.33;;;;;43.06;18.24;101424.41;5102680;27;45459;-74
2022/06/18 01:57:57;;;;;;;;;10.00;10.00;;;;;42.95;18.21;101434.78;5102699;27;45500;-75
2022/06/18 02:00:25;;;;;;;;;10.67;10.00;;;;;42.82;18.13;101420.44;5102571;27;46157;-74
2022/06/18 02:02:52;;;;;;;;;10.00;10.00;;;;;42.82;18.21;101421.28;5102649;27;45381;-74
2022/06/18 02:05:19;;;;;;;;;9.67;9.67;;;;;42.84;17.93;101419.22;5102421;27;45359;-74
2022/06/18 02:07:46;;;;;;;;;10.00;10.00;;;;;42.77;17.72;101411.69;5102376;27;45606;-74
2022/06/18 02:10:23;;;;;;;;;12.33;11.33;;;;;42.82;17.84;101414.84;5102312;27;46293;-74
2022/06/18 02:12:50;;;;;;;;;6.00;6.00;;;;;42.75;18.01;101413.78;5102472;27;45334;-75
2022/06/18 02:15:23;;;;;;;;;9.33;9.33;;;;;42.80;18.04;101414.13;5102650;27;45389;-75
2022/06/18 02:17:49;;;;;;;;;10.00;7.00;;;;;42.65;18.45;101408.31;5102016;27;45294;-74
2022/06/18 02:20:19;;;;;;;;;9.00;9.00;;;;;42.73;18.30;101415.84;5118094;27;47390;-75
2022/06/18 02:22:48;;;;;;;;;6.67;6.67;;;;;42.65;17.93;101408.31;5102311;27;45482;-75
2022/06/18 02:25:16;;;;;;;;;7.33;7.33;;;;;42.50;18.10;101399.66;5102501;27;45376;-74
2022/06/18 02:27:42;;;;;;;;;9.33;8.67;;;;;42.44;17.90;101394.75;5102251;27;45561;-74
2022/06/18 02:30:29;;;;;;;;;8.00;8.00;;;;;42.51;17.78;101407.00;5100993;27;47935;-79
2022/06/18 02:33:01;;;;;;;;;8.00;8.00;;;;;42.46;17.82;101393.53;5101617;27;45444;-80
2022/06/18 02:35:34;;;;;;;;;8.00;8.00;;;;;42.43;17.81;101404.16;5102376;27;45427;-80
2022/06/18 02:38:00;;;;;;;;;9.00;9.00;;;;;42.33;17.74;101380.03;5102358;27;45496;-80
2022/06/18 02:40:29;;;;;;;;;9.33;9.33;;;;;42.33;18.00;101385.59;5101837;27;46349;-80
2022/06/18 02:42:58;;;;;;;;;7.33;7.33;;;;;42.34;18.30;101384.56;5101942;27;45302;-79
2022/06/18 02:45:26;;;;;;;;;9.00;9.00;;;;;42.28;18.29;101379.66;5100792;27;45315;-79
2022/06/18 02:47:55;;;;;;;;;9.33;9.33;;;;;42.30;18.22;101380.34;5101598;27;45579;-79
2022/06/18 02:50:22;;;;;;;;;9.33;8.33;;;;;42.43;17.70;101381.84;5101961;27;46356;-79
2022/06/18 02:52:52;;;;;;;;;8.00;8.00;;;;;42.39;17.70;101377.63;5101134;27;45377;-79
2022/06/18 02:55:28;;;;;;;;;8.00;7.00;;;;;42.31;18.27;101376.53;5097958;27;45376;-80
2022/06/18 02:58:04;;;;;;;;;7.33;7.33;;;;;42.23;18.39;101370.91;5098621;27;45519;-80
2022/06/18 03:00:31;;;;;;;;;9.33;9.33;;;;;42.09;18.04;101352.84;5098461;27;45716;-80
2022/06/18 03:02:56;;;;;;;;;8.00;8.00;;;;;42.15;18.16;101362.44;5097955;27;45497;-80
2022/06/18 03:05:25;;;;;;;;;6.33;6.33;;;;;42.27;18.41;101363.09;5098831;27;45575;-80
2022/06/18 03:07:51;;;;;;;;;9.00;9.00;;;;;42.25;18.29;101357.69;5098443;27;45534;-79
2022/06/18 03:13:01;;;;;;;;;8.00;8.00;;;;;42.22;18.10;101335.69;5098201;27;45428;-80
2022/06/18 03:15:30;;;;;;;;;8.00;8.00;;;;;42.17;18.41;101338.94;5098508;27;45319;-80
2022/06/18 03:17:56;;;;;;;;;9.00;9.00;;;;;42.20;18.42;101346.16;5097782;27;45600;-80
2022/06/18 03:20:25;;;;;;;;;10.33;9.33;;;;;42.09;18.27;101332.47;5098007;27;45540;-80
2022/06/18 03:22:50;;;;;;;;;9.00;9.00;;;;;42.12;17.75;101332.13;5097985;27;45516;-79
2022/06/18 03:25:16;;;;;;;;;9.00;9.00;;;;;42.16;18.61;101339.13;5098470;27;45440;-79
2022/06/18 03:27:41;;;;;;;;;8.00;7.67;;;;;42.16;18.36;101330.75;5098135;27;45384;-80
2022/06/18 03:30:07;;;;;;;;;9.00;8.33;;;;;42.18;18.29;101317.50;5097811;27;46095;-71
2022/06/18 03:32:32;;;;;;;;;9.00;9.00;;;;;42.10;18.85;101332.28;5097971;27;45428;-71
2022/06/18 03:34:58;;;;;;;;;8.33;8.33;;;;;42.14;18.11;101316.97;5097787;27;45363;-71
2022/06/18 03:37:23;;;;;;;;;8.33;7.00;;;;;42.06;18.80;101330.00;5098122;27;45356;-71
2022/06/18 03:39:49;;;;;;;;;9.67;8.33;;;;;41.94;18.82;101310.78;5097591;27;45491;-71
2022/06/18 03:42:14;;;;;;;;;11.00;9.00;;;;;41.91;18.59;101308.28;5098113;27;45295;-71
2022/06/18 03:44:39;;;;;;;;;7.67;7.67;;;;;41.94;18.64;101321.03;5097649;27;45309;-71
2022/06/18 03:47:05;;;;;;;;;8.67;8.67;;;;;41.92;18.75;101320.31;5097401;27;52396;-71
2022/06/18 03:49:33;;;;;;;;;10.00;9.00;;;;;41.80;18.95;101315.03;5097881;27;45597;-72
2022/06/18 03:52:00;;;;;;;;;10.00;9.00;;;;;41.70;19.31;101304.97;5097498;27;45360;-71
2022/06/18 03:54:27;;;;;;;;;9.00;9.00;;;;;41.75;19.13;101319.31;5097790;27;45455;-71
2022/06/18 03:56:52;;;;;;;;;10.00;8.67;;;;;41.68;19.13;101304.28;5097549;27;45377;-71
2022/06/18 03:59:18;;;;;;;;;9.33;9.00;;;;;41.74;18.95;101314.75;5097058;27;45876;-70
2022/06/18 04:01:44;;;;;;;;;12.00;10.00;;;;;41.75;18.42;101309.03;5097243;27;45315;-69
2022/06/18 04:04:11;;;;;;;;;9.33;9.00;;;;;41.80;18.81;101325.28;5097614;27;45443;-69
2022/06/18 04:06:38;;;;;;;;;10.00;10.00;;;;;41.76;18.65;101302.41;5097160;27;45592;-69
2022/06/18 04:09:05;;;;;;;;;11.00;11.00;;;;;41.72;19.08;101311.25;5097242;27;45670;-69
2022/06/18 04:11:30;;;;;;;;;10.67;10.67;;;;;41.70;19.00;101307.75;5097191;27;45511;-69
2022/06/18 04:13:56;;;;;;;;;10.67;9.00;;;;;41.56;18.75;101293.38;5097006;27;45313;-71
2022/06/18 04:16:21;;;;;;;;;9.67;9.67;;;;;41.60;19.14;101308.72;5097394;27;45375;-69
2022/06/18 04:18:46;;;;;;;;;9.00;9.00;;;;;41.63;18.91;101311.22;5096827;27;57141;-73
2022/06/18 04:21:12;;;;;;;;;11.00;10.00;;;;;41.63;18.79;101308.41;5097065;27;45370;-72
2022/06/18 04:23:38;;;;;;;;;8.33;8.33;;;;;41.70;18.73;101307.75;5097337;27;45697;-71
2022/06/18 04:26:04;;;;;;;;;10.00;10.00;;;;;41.61;18.89;101299.34;5097305;27;45509;-72
2022/06/18 04:28:30;;;;;;;;;10.67;9.33;;;;;41.55;18.65;101287.97;5096562;27;45432;-72
2022/06/18 04:30:55;;;;;;;;;12.00;9.33;;;;;41.64;19.39;101293.44;5096796;27;45314;-72
2022/06/18 04:33:21;;;;;;;;;9.00;9.00;;;;;41.57;18.39;101292.34;5097413;27;45352;-77
2022/06/18 04:35:53;;;;;;;;;11.00;9.00;;;;;41.55;18.93;101279.59;5096858;27;45397;-74
2022/06/18 04:38:20;;;;;;;;;10.67;9.00;;;;;41.61;19.12;101290.97;5095485;27;47307;-73
2022/06/18 04:40:46;;;;;;;;;11.33;9.00;;;;;41.51;19.11;101286.53;5096538;27;45351;-74
2022/06/18 04:43:11;;;;;;;;;9.00;8.67;;;;;41.46;19.66;101285.09;5096779;27;45487;-72
2022/06/18 04:45:37;;;;;;;;;9.00;8.00;;;;;41.43;19.73;101291.00;5096520;27;48908;-72
2022/06/18 04:48:04;;;;;;;;;8.33;8.33;;;;;41.51;19.24;101293.00;5096573;27;46310;-72
2022/06/18 04:50:34;;;;;;;;;8.33;8.33;;;;;41.54;19.69;101289.88;5096785;27;45452;-72
2022/06/18 04:52:59;;;;;;;;;10.67;9.00;;;;;41.53;19.09;101293.69;5096690;27;45326;-71
2022/06/18 04:55:25;;;;;;;;;9.33;8.33;;;;;41.49;19.30;101289.47;5096715;27;45473;-71
2022/06/18 04:57:50;;;;;;;;;10.33;9.67;;;;;41.55;19.74;101287.97;5096076;27;45783;-71
2022/06/18 05:00:17;;;;;;;;;9.33;9.00;;;;;41.72;19.50;101311.25;5096464;27;45569;-72
2022/06/18 05:02:42;;;;;;;;;10.00;9.67;;;;;41.68;19.81;101293.13;5096782;27;45502;-72
2022/06/18 05:05:12;;;;;;;;;8.00;8.00;;;;;41.77;20.06;101311.63;5096329;27;45299;-72
2022/06/18 05:07:38;;;;;;;;;10.00;9.00;;;;;41.80;19.82;101314.13;5096549;27;45483;-71
2022/06/18 05:10:04;;;;;;;;;13.67;12.33;;;;;41.85;19.83;101324.81;5096215;27;45373;-73
2022/06/18 05:12:30;;;;;;;;;12.33;12.33;;;;;41.83;19.98;101311.00;5095983;27;45382;-72
2022/06/18 05:14:55;;;;;;;;;12.33;12.33;;;;;41.96;20.76;101307.81;5095119;27;45540;-71
2022/06/18 05:17:27;;;;;;;;;13.67;13.67;;;;;42.06;20.20;101307.69;5095348;27;45772;-72
2022/06/18 05:19:52;;;;;;;;;15.33;15.33;;;;;41.97;20.57;101304.84;5096128;27;45271;-72
2022/06/18 05:22:18;;;;;;;;;13.33;13.00;;;;;42.03;20.80;101302.44;5096426;27;45422;-72
2022/06/18 05:24:44;;;;;;;;;15.33;14.00;;;;;42.14;20.64;101311.41;5096296;27;45591;-71
2022/06/18 05:27:16;;;;;;;;;13.67;12.33;;;;;42.21;20.49;101305.19;5094362;27;46111;-71
2022/06/18 05:29:42;;;;;;;;;15.00;14.33;;;;;42.18;20.55;101303.56;5096157;27;45409;-72
2022/06/18 05:32:07;;;;;;;;;17.67;15.00;;;;;42.18;20.99;101300.78;5096283;27;45866;-76
2022/06/18 05:34:33;;;;;;;;;18.67;18.67;;;;;42.26;20.37;101303.66;5096292;27;45481;-77
2022/06/18 05:36:58;;;;;;;;;24.67;21.33;;;;;42.32;20.27;101302.09;5094302;27;48272;-78
2022/06/18 05:39:23;;;;;;;;;17.00;16.67;;;;;42.24;20.37;101291.81;5094662;27;45951;-78
2022/06/18 05:41:49;;;;;;;;;15.67;15.67;;;;;42.11;20.05;101257.88;5095552;27;45457;-78
2022/06/18 05:44:14;;;;;;;;;15.67;15.67;;;;;42.32;20.52;101288.16;5096076;27;45456;-78
2022/06/18 05:46:40;;;;;;;;;15.33;13.67;;;;;42.31;19.07;101292.88;5095932;27;46192;-78
2022/06/18 05:49:05;;;;;;;;;13.00;13.00;;;;;42.19;19.40;101279.38;5095870;27;45370;-78
2022/06/18 05:51:30;;;;;;;;;10.33;10.33;;;;;42.14;18.96;101272.38;5096120;27;45366;-78
2022/06/18 05:53:56;;;;;;;;;9.00;9.00;;;;;42.08;18.67;101283.31;5094593;27;45604;-77
2022/06/18 05:56:21;;;;;;;;;11.00;8.00;;;;;42.09;18.29;101291.50;5095380;27;45429;-78
2022/06/18 05:58:46;;;;;;;;;7.33;5.33;;;;;41.92;18.37;101273.81;5095866;27;45650;-77
2022/06/18 06:01:12;;;;;;;;;7.00;7.00;;;;;42.00;18.63;101290.59;5095795;27;45437;-78
2022/06/18 06:03:37;;;;;;;;;9.00;8.00;;;;;41.97;18.63;101284.47;5095901;27;45658;-78
2022/06/18 06:06:03;;;;;;;;;8.67;7.67;;;;;41.99;18.28;101285.19;5094218;27;46067;-77
2022/06/18 06:08:28;;;;;;;;;9.00;8.33;;;;;42.09;18.59;101274.78;5095662;27;45446;-78
2022/06/18 06:13:38;;;;;;;;;8.00;8.00;;;;;42.06;18.25;101255.59;5095737;27;45342;-77
2022/06/18 06:16:03;;;;;;;;;9.00;9.00;;;;;42.06;18.15;101263.97;5095237;27;45524;-78
2022/06/18 06:18:29;;;;;;;;;7.33;7.00;;;;;42.12;18.07;101260.50;5094350;27;45411;-78
2022/06/18 06:20:57;;;;;;;;;8.00;8.00;;;;;42.13;18.21;101258.59;5094161;27;45384;-78
2022/06/18 06:23:23;;;;;;;;;6.67;5.67;;;;;42.19;18.20;101241.19;5095573;27;45353;-78
2022/06/18 06:25:49;;;;;;;;;7.00;7.00;;;;;42.28;17.89;101262.56;5095119;27;46126;-78
2022/06/18 06:28:17;;;;;;;;;8.00;8.00;;;;;42.36;18.33;101252.47;5096425;27;45331;-78
2022/06/18 06:30:43;;;;;;;;;10.00;8.00;;;;;42.37;17.61;101248.66;5099275;27;45381;-78
2022/06/18 06:33:09;;;;;;;;;9.00;9.00;;;;;42.19;18.09;101218.03;5098960;27;45783;-78
2022/06/18 06:35:35;;;;;;;;;7.00;7.00;;;;;42.44;18.04;101256.16;5097394;27;48646;-77
2022/06/18 06:38:02;;;;;;;;;8.33;8.33;;;;;42.54;17.70;101258.81;5098454;27;45412;-78
2022/06/18 06:40:29;;;;;;;;;8.00;7.00;;;;;42.37;17.31;101249.50;5098559;27;45424;-78
2022/06/18 06:42:58;;;;;;;;;10.00;8.33;;;;;42.43;17.72;101259.97;5098764;27;45373;-77
2022/06/18 06:45:28;;;;;;;;;8.00;8.00;;;;;42.50;17.68;101255.47;5098585;27;45406;-78
2022/06/18 06:47:54;;;;;;;;;8.67;8.00;;;;;42.50;17.70;101260.19;5097380;27;46002;-79
2022/06/18 06:50:21;;;;;;;;;9.00;8.00;;;;;42.49;17.30;101259.31;5098722;27;45377;-79
2022/06/18 06:52:50;;;;;;;;;9.00;8.00;;;;;42.42;17.26;101260.16;5098837;27;45532;-78
2022/06/18 06:58:05;;;;;;;;;8.00;8.00;;;;;42.44;17.37;101258.09;5098328;27;45508;-77
2022/06/18 07:00:38;;;;;;;;;9.00;8.67;;;;;42.55;17.82;101262.44;5098517;27;45311;-77
2022/06/18 07:03:03;;;;;;;;;9.00;9.00;;;;;42.54;17.49;101247.66;5098292;27;45579;-77
2022/06/18 07:05:29;;;;;;;;;9.67;8.00;;;;;42.64;17.57;101251.19;5098419;27;46107;-76
2022/06/18 07:07:54;;;;;;;;;9.00;9.00;;;;;42.70;17.09;101260.78;5097809;27;45401;-76
2022/06/18 07:10:20;;;;;;;;;11.33;10.33;;;;;42.65;17.00;101257.66;5098478;27;45239;-77
2022/06/18 07:12:45;;;;;;;;;8.67;8.67;;;;;42.70;17.21;101241.25;5098380;27;45330;-77
2022/06/18 07:15:11;;;;;;;;;8.00;8.00;;;;;42.92;17.07;101259.28;5096703;27;47174;-76
2022/06/18 07:17:37;;;;;;;;;12.00;11.00;;;;;42.91;16.78;101259.44;5098171;27;45354;-76
2022/06/18 07:20:04;;;;;;;;;8.67;8.00;;;;;42.90;16.58;101266.97;5097877;27;45550;-77
2022/06/18 07:22:31;;;;;;;;;9.00;9.00;;;;;42.93;17.01;101276.91;5098156;27;45363;-77
2022/06/18 07:24:56;;;;;;;;;7.00;7.00;;;;;43.01;16.63;101263.84;5097891;27;45490;-77
2022/06/18 07:27:22;;;;;;;;;9.67;9.67;;;;;43.00;16.63;101262.09;5098032;27;45385;-77
2022/06/18 07:29:47;;;;;;;;;9.67;9.67;;;;;42.92;17.09;101247.25;5097956;27;45384;-77
2022/06/18 07:32:15;;;;;;;;;8.00;8.00;;;;;42.98;17.08;101268.88;5098106;27;45601;-77
2022/06/18 07:34:41;;;;;;;;;9.33;8.67;;;;;42.92;16.70;101248.13;5097845;27;45425;-76
2022/06/18 07:37:07;;;;;;;;;11.00;9.00;;;;;43.09;16.70;101265.78;5097230;27;45477;-76
2022/06/18 07:39:33;;;;;;;;;10.00;10.00;;;;;43.25;16.54;101259.34;5097291;27;45466;-76
2022/06/18 07:41:59;;;;;;;;;10.00;10.00;;;;;43.13;16.91;101244.00;5097749;27;45784;-76
2022/06/18 07:44:25;;;;;;;;;10.33;10.33;;;;;43.16;16.96;101254.81;5097718;27;45483;-76
2022/06/18 07:46:52;;;;;;;;;10.67;10.00;;;;;43.26;16.79;101251.84;5096128;27;45380;-76
2022/06/18 07:49:18;;;;;;;;;14.00;12.00;;;;;43.39;16.78;101242.94;5097529;27;45222;-77
2022/06/18 07:51:44;;;;;;;;;13.00;13.00;;;;;43.27;16.56;101246.06;5097351;27;45370;-76
2022/06/18 07:54:14;;;;;;;;;9.67;9.67;;;;;43.27;16.95;101222.88;5095942;27;46330;-77
2022/06/18 07:56:40;;;;;;;;;10.00;10.00;;;;;43.26;17.12;101224.78;5097568;27;45386;-76
2022/06/18 07:59:05;;;;;;;;;12.00;12.00;;;;;43.39;16.77;101226.19;5097461;27;45405;-78
2022/06/18 08:01:31;;;;;;;;;10.33;10.33;;;;;43.62;16.26;101230.03;5097471;27;45469;-78
2022/06/18 08:03:56;;;;;;;;;10.00;10.00;;;;;43.56;16.85;101211.19;5097224;27;45425;-78
2022/06/18 08:06:22;;;;;;;;;13.00;11.00;;;;;43.81;16.82;101241.84;5095259;27;45448;-79
2022/06/18 08:08:47;;;;;;;;;10.00;10.00;;;;;43.69;16.21;101228.25;5097607;27;45412;-79
2022/06/18 08:11:18;;;;;;;;;11.00;11.00;;;;;43.74;16.82;101218.47;5097093;27;45303;-79
2022/06/18 08:13:44;;;;;;;;;11.33;11.33;;;;;43.90;16.64;101217.56;5096903;27;46116;-79
2022/06/18 08:16:12;;;;;;;;;12.33;10.67;;;;;43.97;16.20;101208.28;5097246;27;45348;-79
2022/06/18 08:18:38;;;;;;;;;11.00;11.00;;;;;43.85;17.17;101223.69;5097273;27;45453;-78
2022/06/18 08:21:08;;;;;;;;;13.00;11.33;;;;;43.90;17.28;101223.16;5096554;27;45305;-77
2022/06/18 08:23:34;;;;;;;;;12.00;12.00;;;;;43.84;16.60;101221.91;5096998;27;45404;-77
2022/06/18 08:26:00;;;;;;;;;12.00;11.00;;;;;44.03;16.63;101218.75;5096841;27;45786;-79
2022/06/18 08:28:25;;;;;;;;;12.00;11.67;;;;;44.09;16.43;101207.91;5097114;27;45783;-78
2022/06/18 08:30:51;;;;;;;;;13.33;13.33;;;;;44.18;17.02;101210.47;5097114;27;45473;-78
2022/06/18 08:33:17;;;;;;;;;12.00;12.00;;;;;44.16;16.71;101214.50;5095322;27;48041;-79
2022/06/18 08:35:43;;;;;;;;;10.00;10.00;;;;;44.11;17.01;101192.69;5096352;27;45476;-79
2022/06/18 08:38:08;;;;;;;;;10.00;10.00;;;;;44.19;16.51;101205.75;5096808;27;45324;-79
2022/06/18 08:40:46;;;;;;;;;12.00;10.00;;;;;44.25;16.70;101188.25;5096593;27;45361;-79
2022/06/18 08:43:38;;;;;;;;;11.33;11.33;;;;;44.48;17.12;101199.50;5096435;27;46243;-79
2022/06/18 08:46:29;;;;;;;;;12.67;11.33;;;;;44.47;16.58;101197.75;5096461;27;45335;-79
2022/06/18 08:49:21;;;;;;;;;7.67;7.67;;;;;44.42;15.97;101193.78;5095378;27;45375;-79
2022/06/18 08:52:08;;;;;;;;;11.00;11.00;;;;;44.48;16.63;101193.06;5095452;27;45370;-79
2022/06/18 08:54:49;;;;;;;;;13.00;12.33;;;;;44.57;16.85;101197.53;5112038;27;48113;-79
2022/06/18 08:57:23;;;;;;;;;17.00;14.00;;;;;44.25;16.08;101188.25;5096297;27;45407;-80
2022/06/18 09:00:07;;;;;;;;;12.00;11.33;;;;;44.48;16.43;101181.88;5096372;27;45465;-78
2022/06/18 09:02:41;;;;;;;;;11.33;11.33;;;;;44.69;16.07;101189.63;5096458;27;45393;-79
2022/06/18 09:05:34;;;;;;;;;13.00;12.00;;;;;44.85;16.14;101177.44;5095712;27;46254;-79
2022/06/18 09:08:05;;;;;;;;;14.00;14.00;;;;;44.85;15.88;101177.44;5112219;27;45880;-78
2022/06/18 09:11:07;;;;;;;;;11.00;11.00;;;;;44.89;15.92;101142.41;5096594;27;45397;-78
2022/06/18 09:13:43;;;;;;;;;12.67;12.67;;;;;45.13;16.08;101168.47;5096267;27;45421;-79
2022/06/18 09:16:13;;;;;;;;;13.00;13.00;;;;;44.93;15.72;101145.72;5095962;27;46611;-79
2022/06/18 09:18:45;;;;;;;;;13.00;12.00;;;;;44.88;15.80;101149.06;5111276;27;45738;-79
2022/06/18 09:21:19;;;;;;;;;14.67;13.67;;;;;44.92;16.23;101160.75;5095978;27;45369;-80
2022/06/18 09:24:05;;;;;;;;;15.67;14.67;;;;;44.81;16.32;101148.97;5096223;27;45412;-80
2022/06/18 09:26:45;;;;;;;;;15.67;14.33;;;;;44.77;16.00;101143.91;5094483;27;47144;-81
2022/06/18 09:29:34;;;;;;;;;12.67;12.67;;;;;44.81;16.28;101146.16;5095813;27;45373;-80
2022/06/18 09:32:14;;;;;;;;;17.00;13.67;;;;;45.03;16.32;101143.50;5096356;27;45337;-81
2022/06/18 09:35:05;;;;;;;;;13.33;13.33;;;;;45.20;16.15;101133.91;5094322;27;45406;-80
2022/06/18 09:37:48;;;;;;;;;16.67;15.67;;;;;45.30;15.92;101143.97;5093214;27;46418;-81
2022/06/18 09:40:35;;;;;;;;;14.00;13.00;;;;;45.17;15.60;101122.22;5094228;27;46174;-79
2022/06/18 09:43:37;;;;;;;;;13.00;13.00;;;;;45.25;15.56;101136.16;5095746;27;45318;-80
2022/06/18 09:46:09;;;;;;;;;15.00;13.00;;;;;45.43;15.25;101130.16;5113218;27;45377;-80
2022/06/18 09:48:36;;;;;;;;;13.67;13.67;;;;;45.30;14.48;101111.22;5116360;27;45435;-78
2022/06/18 09:51:12;;;;;;;;;13.00;13.00;;;;;45.44;14.77;101101.09;5123160;27;45719;-77
2022/06/18 09:53:42;;;;;;;;;13.00;11.67;;;;;45.43;13.84;101110.53;5111691;27;45411;-75
2022/06/18 09:56:14;;;;;;;;;11.67;11.67;;;;;45.53;14.23;101118.69;5096145;27;45523;-79
2022/06/18 09:58:50;;;;;;;;;11.00;11.00;;;;;45.45;13.99;101113.19;5096141;27;45267;-78
2022/06/18 10:01:20;;;;;;;;;10.67;10.00;;;;;45.44;13.63;101089.03;5095848;27;45715;-78
2022/06/18 10:06:55;;;;;;;;;13.00;11.00;;;;;45.52;14.16;101084.22;5103436;27;45598;-79
2022/06/18 10:09:33;;;;;;;;;12.00;12.00;;;;;45.68;14.44;101074.72;5099216;27;46087;-78
2022/06/18 10:12:13;;;;;;;;;14.33;13.33;;;;;45.82;14.00;101086.13;5099243;27;45476;-76
2022/06/18 10:14:39;;;;;;;;;10.67;10.67;;;;;45.96;13.77;101087.19;5099327;27;45225;-76
2022/06/18 10:17:04;;;;;;;;;12.33;11.00;;;;;45.95;13.92;101086.28;5098500;27;45507;-76
2022/06/18 10:19:58;;;;;;;;;10.00;10.00;;;;;45.92;13.80;101089.50;5098440;27;46133;-76
2022/06/18 10:23:00;;;;;;;;;12.00;10.67;;;;;46.11;13.66;101074.00;5099636;27;45545;-77
2022/06/18 10:25:43;;;;;;;;;9.33;9.00;;;;;46.19;14.12;101064.56;5101736;27;45452;-77
2022/06/18 10:28:12;;;;;;;;;7.00;7.00;;;;;46.36;13.67;101066.09;5104150;27;45436;-76
2022/06/18 10:30:55;;;;;;;;;9.00;9.00;;;;;46.47;13.92;101058.19;5098708;27;45473;-77
2022/06/18 10:33:59;;;;;;;;;10.67;9.33;;;;;46.51;13.97;101060.38;5104742;27;45515;-78
2022/06/18 10:36:39;;;;;;;;;10.00;9.00;;;;;46.55;13.54;101055.25;5106398;27;45381;-78
2022/06/18 10:39:22;;;;;;;;;10.00;9.00;;;;;46.29;13.41;101039.91;5113593;27;45340;-78
2022/06/18 10:42:06;;;;;;;;;8.00;8.00;;;;;46.42;13.49;101043.88;5082217;27;46322;-78
2022/06/18 10:45:09;;;;;;;;;11.67;11.67;;;;;46.62;13.45;101050.59;5098160;27;45577;-79
2022/06/18 10:47:38;;;;;;;;;9.33;9.33;;;;;46.55;12.82;101042.06;5097264;27;45546;-77
2022/06/18 10:50:11;;;;;;;;;10.33;9.33;;;;;46.62;12.75;101038.50;5097452;27;45433;-77
2022/06/18 10:52:38;;;;;;;;;10.67;10.67;;;;;46.62;12.48;101041.31;5098157;27;45410;-78
2022/06/18 10:55:11;;;;;;;;;10.00;10.00;;;;;46.70;13.09;101041.19;5098825;27;45737;-76
2022/06/18 10:57:37;;;;;;;;;9.00;8.67;;;;;46.58;13.36;101001.53;5098077;27;45468;-76
2022/06/18 11:00:25;;;;;;;;;8.67;8.67;;;;;46.77;13.20;101021.56;5098376;27;45378;-76
2022/06/18 11:02:53;;;;;;;;;11.00;9.67;;;;;46.80;13.31;101021.16;5098781;27;46348;-77
2022/06/18 11:05:24;;;;;;;;;10.00;10.00;;;;;46.93;12.95;101021.25;5098515;27;45277;-77
2022/06/18 11:07:52;;;;;;;;;9.00;9.00;;;;;46.83;13.11;100995.50;5098595;27;45443;-77
2022/06/18 11:10:58;;;;;;;;;10.67;10.00;;;;;47.03;13.13;101007.72;5097923;27;45519;-77
2022/06/18 11:13:35;;;;;;;;;11.00;11.00;;;;;47.03;13.51;100993.69;5098026;27;45821;-77
2022/06/18 11:16:22;;;;;;;;;8.33;8.33;;;;;47.09;13.36;101008.84;5096983;27;45585;-77
2022/06/18 11:18:53;;;;;;;;;11.67;11.00;;;;;47.17;12.98;100996.59;5098184;27;45443;-77
2022/06/18 11:21:34;;;;;;;;;10.67;9.33;;;;;47.22;13.10;100994.88;5096697;27;45634;-78
2022/06/18 11:24:23;;;;;;;;;10.33;8.67;;;;;47.32;12.54;100997.31;5098169;27;45531;-78
2022/06/18 11:26:56;;;;;;;;;9.00;7.33;;;;;46.92;12.26;100960.53;5098388;27;45490;-82
2022/06/18 11:29:24;;;;;;;;;5.67;5.67;;;;;47.09;12.51;100986.38;5097729;27;45356;-79
2022/06/18 11:31:53;;;;;;;;;8.00;8.00;;;;;47.03;12.84;100973.19;5098263;27;45455;-77
2022/06/18 11:34:22;;;;;;;;;8.67;8.67;;;;;46.83;12.53;100942.16;5100553;27;46299;-77
2022/06/18 11:36:51;;;;;;;;;8.00;8.00;;;;;47.15;12.59;100979.06;5098180;27;45471;-78
2022/06/18 11:39:35;;;;;;;;;10.00;8.67;;;;;47.24;12.68;100975.00;5098061;27;45469;-77
2022/06/18 11:42:50;;;;;;;;;10.00;8.00;;;;;47.33;12.79;100973.78;5097736;27;45385;-77
2022/06/18 11:45:35;;;;;;;;;9.67;8.00;;;;;47.45;12.77;100964.78;5087650;27;46465;-77
2022/06/18 11:48:24;;;;;;;;;8.67;8.67;;;;;47.46;13.25;100958.94;5097860;27;45414;-77